EGOS

RAF Shawbury Airport

Shawbury, United Kingdom
METAR EGOS 181550Z 08001KT 9999 FEW025 12/06 Q1027 BLU NOSIG
Observed Flight Rules
Oct-18 @ 15:50 UTC (23 minutes ago) Visual Flight Rules
Wind Visibility Clouds
80° at 1 knots 10,000+ meters
  • Few at 2,500' AGL
Temperatures Readings
Current 12°C / 54°F
Dewpoint 6°C / 43°F
Humidity 67%
Altimeter 30.32" Hg
Pressure 1027 hPa
Elevation 76
METAR EGOS 181550Z 08001KT 9999 FEW025 12/06 Q1027 BLU NOSIG
Observed Flight Rules
Oct-18 @ 15:50 UTC
(23 minutes ago)
VFR
Wind Visibility
80° at 1 knots 10,000+ meters
Clouds
  • Few at 2,500' AGL
Temperature Dewpoint
12°C / 54°F 6°C / 43°F
Humidity Altimeter Pressure
67% 30.32" Hg 1027 hPa